createdAt,value
2023-04-18T00:00:24.248Z,8.83
2023-04-18T00:02:53.979Z,8.07
2023-04-18T00:05:22.375Z,8.30
2023-04-18T00:07:51.354Z,9.10
2023-04-18T00:10:19.268Z,8.30
2023-04-18T00:12:47.182Z,9.53
2023-04-18T00:15:14.993Z,9.13
2023-04-18T00:17:44.195Z,9.10
2023-04-18T00:20:12.777Z,10.07
2023-04-18T00:22:42.614Z,10.17
2023-04-18T00:25:12.016Z,10.23
2023-04-18T00:27:40.183Z,9.03
2023-04-18T00:30:09.648Z,10.33
2023-04-18T00:32:38.744Z,9.87
2023-04-18T00:35:08.708Z,10.43
2023-04-18T00:37:37.174Z,10.33
2023-04-18T00:40:05.853Z,10.77
2023-04-18T00:42:34.096Z,10.53
2023-04-18T00:45:02.153Z,10.90
2023-04-18T00:47:29.939Z,9.93
2023-04-18T00:49:57.905Z,10.27
2023-04-18T00:52:28.073Z,10.53
2023-04-18T00:54:56.664Z,10.77
2023-04-18T00:57:24.547Z,11.50
2023-04-18T00:59:53.077Z,11.33
2023-04-18T01:02:20.902Z,11.23
2023-04-18T01:04:48.808Z,11.30
2023-04-18T01:07:16.757Z,12.03
2023-04-18T01:09:46.120Z,12.20
2023-04-18T01:12:13.944Z,13.30
2023-04-18T01:14:42.624Z,12.90
2023-04-18T01:17:11.043Z,13.07
2023-04-18T01:19:39.341Z,13.33
2023-04-18T01:22:08.286Z,12.20
2023-04-18T01:24:37.440Z,13.13
2023-04-18T01:27:05.895Z,13.80
2023-04-18T01:29:35.257Z,13.83
2023-04-18T01:32:03.658Z,13.30
2023-04-18T01:34:31.398Z,13.93
2023-04-18T01:36:59.232Z,14.10
2023-04-18T01:39:27.062Z,13.93
2023-04-18T01:41:56.281Z,15.10
2023-04-18T01:44:24.129Z,14.03
2023-04-18T01:46:51.947Z,14.40
2023-04-18T01:49:19.799Z,15.23
2023-04-18T01:51:49.874Z,14.87
2023-04-18T01:54:17.700Z,14.63
2023-04-18T01:56:45.825Z,15.87
2023-04-18T01:59:15.097Z,16.17
2023-04-18T02:01:43.453Z,15.73
2023-04-18T02:04:11.628Z,15.90
2023-04-18T02:06:39.590Z,16.87
2023-04-18T02:09:07.314Z,15.60
2023-04-18T02:11:35.066Z,16.57
2023-04-18T02:14:04.161Z,16.73
2023-04-18T02:16:34.050Z,16.53
2023-04-18T02:19:04.362Z,16.33
2023-04-18T02:21:32.194Z,17.10
2023-04-18T02:24:00.032Z,16.50
2023-04-18T02:26:27.822Z,17.37
2023-04-18T02:28:58.989Z,17.07
2023-04-18T02:31:27.028Z,17.03
2023-04-18T02:33:56.372Z,18.10
2023-04-18T02:36:26.062Z,16.20
2023-04-18T02:38:53.830Z,16.33
2023-04-18T02:41:21.871Z,16.03
2023-04-18T02:43:49.767Z,16.37
2023-04-18T02:46:19.475Z,16.40
2023-04-18T02:48:49.284Z,17.03
2023-04-18T02:51:20.508Z,16.00
2023-04-18T02:53:48.792Z,16.23
2023-04-18T02:56:18.025Z,16.73
2023-04-18T02:59:24.017Z,16.47
2023-04-18T03:02:10.515Z,16.30
2023-04-18T03:04:44.004Z,17.50
2023-04-18T03:07:13.339Z,16.50
2023-04-18T03:09:42.348Z,16.33
2023-04-18T03:12:24.099Z,16.33
2023-04-18T03:14:52.498Z,16.80
2023-04-18T03:17:21.410Z,16.87
2023-04-18T03:19:50.430Z,16.77
2023-04-18T03:22:22.019Z,15.90
2023-04-18T03:25:00.977Z,16.43
2023-04-18T03:27:42.850Z,17.33
2023-04-18T03:30:12.427Z,17.80
2023-04-18T03:32:43.018Z,18.47
2023-04-18T03:35:11.062Z,18.27
2023-04-18T03:37:40.629Z,18.20
2023-04-18T03:40:10.841Z,17.90
2023-04-18T03:42:38.679Z,18.23
2023-04-18T03:45:07.327Z,17.60
2023-04-18T03:47:37.885Z,17.20
2023-04-18T03:50:06.938Z,17.13
2023-04-18T03:52:35.344Z,17.67
2023-04-18T03:55:07.843Z,17.37
2023-04-18T03:57:35.856Z,18.03
2023-04-18T04:00:08.541Z,18.00
2023-04-18T04:02:43.478Z,17.07
2023-04-18T04:05:17.945Z,17.37
2023-04-18T04:07:46.128Z,18.13
2023-04-18T04:10:15.422Z,17.90
2023-04-18T04:12:43.355Z,18.30
2023-04-18T04:15:12.826Z,18.43
2023-04-18T04:17:47.234Z,18.20
2023-04-18T04:20:17.061Z,19.43
2023-04-18T04:22:44.918Z,18.40
2023-04-18T04:25:13.830Z,18.20
2023-04-18T04:27:44.778Z,19.07
2023-04-18T04:30:14.857Z,18.77
2023-04-18T04:32:44.600Z,19.43
2023-04-18T04:35:12.491Z,19.60
2023-04-18T04:37:41.161Z,20.23
2023-04-18T04:40:19.219Z,20.50
2023-04-18T04:42:56.117Z,20.63
2023-04-18T04:45:31.132Z,20.83
2023-04-18T04:47:58.991Z,21.37
2023-04-18T04:50:26.811Z,21.13
2023-04-18T04:52:54.666Z,20.60
2023-04-18T04:55:22.572Z,21.43
